sensor_id;sensor_type;location;lat;lon;timestamp;temperature;humidity
41720;DHT22;27405;53.316;-6.294;2023-08-06T00:00:21;12.60;99.90
41720;DHT22;27405;53.316;-6.294;2023-08-06T00:02:47;12.50;99.90
41720;DHT22;27405;53.316;-6.294;2023-08-06T00:05:12;12.50;99.90
41720;DHT22;27405;53.316;-6.294;2023-08-06T00:07:38;12.50;99.90
41720;DHT22;27405;53.316;-6.294;2023-08-06T00:10:04;12.50;99.90
41720;DHT22;27405;53.316;-6.294;2023-08-06T00:12:30;12.50;99.90
41720;DHT22;27405;53.316;-6.294;2023-08-06T00:14:56;12.50;99.90
41720;DHT22;27405;53.316;-6.294;2023-08-06T00:17:21;12.40;99.90
41720;DHT22;27405;53.316;-6.294;2023-08-06T00:19:47;12.50;99.90
41720;DHT22;27405;53.316;-6.294;2023-08-06T00:22:13;12.50;99.90
41720;DHT22;27405;53.316;-6.294;2023-08-06T00:24:39;12.50;99.90
41720;DHT22;27405;53.316;-6.294;2023-08-06T00:27:04;12.40;99.90
41720;DHT22;27405;53.316;-6.294;2023-08-06T00:29:30;12.40;99.90
41720;DHT22;27405;53.316;-6.294;2023-08-06T00:31:56;12.40;99.90
41720;DHT22;27405;53.316;-6.294;2023-08-06T00:34:21;12.40;99.90
41720;DHT22;27405;53.316;-6.294;2023-08-06T00:36:47;12.40;99.90
41720;DHT22;27405;53.316;-6.294;2023-08-06T00:39:13;12.30;99.90
41720;DHT22;27405;53.316;-6.294;2023-08-06T00:41:39;12.30;99.90
41720;DHT22;27405;53.316;-6.294;2023-08-06T00:44:04;12.30;99.90
41720;DHT22;27405;53.316;-6.294;2023-08-06T00:46:32;12.30;99.90
41720;DHT22;27405;53.316;-6.294;2023-08-06T00:48:59;12.30;99.90
41720;DHT22;27405;53.316;-6.294;2023-08-06T00:51:25;12.30;99.90
41720;DHT22;27405;53.316;-6.294;2023-08-06T00:53:52;12.30;99.90
41720;DHT22;27405;53.316;-6.294;2023-08-06T00:56:19;12.30;99.90
41720;DHT22;27405;53.316;-6.294;2023-08-06T00:58:45;12.30;99.90
41720;DHT22;27405;53.316;-6.294;2023-08-06T01:01:11;12.30;99.90
41720;DHT22;27405;53.316;-6.294;2023-08-06T01:03:37;12.20;99.90
41720;DHT22;27405;53.316;-6.294;2023-08-06T01:06:03;12.20;99.90
41720;DHT22;27405;53.316;-6.294;2023-08-06T01:13:54;12.20;99.90
41720;DHT22;27405;53.316;-6.294;2023-08-06T01:16:20;12.20;99.90
41720;DHT22;27405;53.316;-6.294;2023-08-06T01:18:49;12.20;99.90
41720;DHT22;27405;53.316;-6.294;2023-08-06T01:21:15;12.20;99.90
41720;DHT22;27405;53.316;-6.294;2023-08-06T01:23:42;12.10;99.90
41720;DHT22;27405;53.316;-6.294;2023-08-06T01:29:04;12.10;99.90
41720;DHT22;27405;53.316;-6.294;2023-08-06T01:31:36;12.10;99.90
41720;DHT22;27405;53.316;-6.294;2023-08-06T01:34:05;12.10;99.90
41720;DHT22;27405;53.316;-6.294;2023-08-06T01:36:31;12.10;99.90
41720;DHT22;27405;53.316;-6.294;2023-08-06T01:38:57;12.10;99.90
41720;DHT22;27405;53.316;-6.294;2023-08-06T01:41:23;12.10;99.90
41720;DHT22;27405;53.316;-6.294;2023-08-06T01:43:49;12.10;99.90
41720;DHT22;27405;53.316;-6.294;2023-08-06T01:46:15;12.10;99.90
41720;DHT22;27405;53.316;-6.294;2023-08-06T01:48:40;12.10;99.90
41720;DHT22;27405;53.316;-6.294;2023-08-06T01:51:06;12.10;99.90
41720;DHT22;27405;53.316;-6.294;2023-08-06T01:53:32;12.10;99.90
41720;DHT22;27405;53.316;-6.294;2023-08-06T01:55:58;12.10;99.90
41720;DHT22;27405;53.316;-6.294;2023-08-06T01:58:24;12.10;99.90
41720;DHT22;27405;53.316;-6.294;2023-08-06T02:00:49;12.00;99.90
41720;DHT22;27405;53.316;-6.294;2023-08-06T02:03:15;12.10;99.90
41720;DHT22;27405;53.316;-6.294;2023-08-06T02:05:41;12.10;99.90
41720;DHT22;27405;53.316;-6.294;2023-08-06T02:08:07;12.10;99.90
41720;DHT22;27405;53.316;-6.294;2023-08-06T02:10:33;12.10;99.90
41720;DHT22;27405;53.316;-6.294;2023-08-06T02:12:59;12.10;99.90
41720;DHT22;27405;53.316;-6.294;2023-08-06T02:15:24;12.10;99.90
41720;DHT22;27405;53.316;-6.294;2023-08-06T02:17:50;12.10;99.90
41720;DHT22;27405;53.316;-6.294;2023-08-06T02:20:16;12.10;99.90
41720;DHT22;27405;53.316;-6.294;2023-08-06T02:22:42;12.10;99.90
41720;DHT22;27405;53.316;-6.294;2023-08-06T02:25:07;12.10;99.90
41720;DHT22;27405;53.316;-6.294;2023-08-06T02:27:33;12.10;99.90
41720;DHT22;27405;53.316;-6.294;2023-08-06T02:29:59;12.20;99.90
41720;DHT22;27405;53.316;-6.294;2023-08-06T02:32:24;12.20;99.90
41720;DHT22;27405;53.316;-6.294;2023-08-06T02:34:50;12.20;99.90
41720;DHT22;27405;53.316;-6.294;2023-08-06T02:37:16;12.20;99.90
41720;DHT22;27405;53.316;-6.294;2023-08-06T02:39:41;12.30;99.90
41720;DHT22;27405;53.316;-6.294;2023-08-06T02:42:08;12.30;99.90
41720;DHT22;27405;53.316;-6.294;2023-08-06T02:44:35;12.40;99.90
41720;DHT22;27405;53.316;-6.294;2023-08-06T02:47:01;12.40;99.90
41720;DHT22;27405;53.316;-6.294;2023-08-06T02:49:27;12.40;99.90
41720;DHT22;27405;53.316;-6.294;2023-08-06T02:51:52;12.40;99.90
41720;DHT22;27405;53.316;-6.294;2023-08-06T02:54:19;12.40;99.90
41720;DHT22;27405;53.316;-6.294;2023-08-06T02:56:45;12.40;99.90
41720;DHT22;27405;53.316;-6.294;2023-08-06T02:59:12;12.40;99.90
41720;DHT22;27405;53.316;-6.294;2023-08-06T03:01:38;12.40;99.90
41720;DHT22;27405;53.316;-6.294;2023-08-06T03:04:04;12.40;99.90
41720;DHT22;27405;53.316;-6.294;2023-08-06T03:06:29;12.40;99.90
41720;DHT22;27405;53.316;-6.294;2023-08-06T03:08:55;12.50;99.90
41720;DHT22;27405;53.316;-6.294;2023-08-06T03:11:21;12.50;99.90
41720;DHT22;27405;53.316;-6.294;2023-08-06T03:13:47;12.50;99.90
41720;DHT22;27405;53.316;-6.294;2023-08-06T03:16:13;12.50;99.90
41720;DHT22;27405;53.316;-6.294;2023-08-06T03:18:39;12.50;99.90
41720;DHT22;27405;53.316;-6.294;2023-08-06T03:21:05;12.50;99.90
41720;DHT22;27405;53.316;-6.294;2023-08-06T03:23:30;12.50;99.90
41720;DHT22;27405;53.316;-6.294;2023-08-06T03:25:56;12.50;99.90
41720;DHT22;27405;53.316;-6.294;2023-08-06T03:28:26;12.50;99.90
41720;DHT22;27405;53.316;-6.294;2023-08-06T03:31:02;12.40;99.90
41720;DHT22;27405;53.316;-6.294;2023-08-06T03:33:28;12.40;99.90
41720;DHT22;27405;53.316;-6.294;2023-08-06T03:35:54;12.30;99.90
41720;DHT22;27405;53.316;-6.294;2023-08-06T03:38:20;12.40;99.90
41720;DHT22;27405;53.316;-6.294;2023-08-06T03:40:46;12.30;99.90
41720;DHT22;27405;53.316;-6.294;2023-08-06T03:43:12;12.30;99.90
41720;DHT22;27405;53.316;-6.294;2023-08-06T03:45:37;12.30;99.90
41720;DHT22;27405;53.316;-6.294;2023-08-06T03:48:03;12.30;99.90
41720;DHT22;27405;53.316;-6.294;2023-08-06T03:50:29;12.40;99.90
41720;DHT22;27405;53.316;-6.294;2023-08-06T03:52:55;12.40;99.90
41720;DHT22;27405;53.316;-6.294;2023-08-06T03:55:21;12.40;99.90
41720;DHT22;27405;53.316;-6.294;2023-08-06T03:57:47;12.40;99.90
41720;DHT22;27405;53.316;-6.294;2023-08-06T04:00:13;12.40;99.90
41720;DHT22;27405;53.316;-6.294;2023-08-06T04:02:39;12.50;99.90
41720;DHT22;27405;53.316;-6.294;2023-08-06T04:05:04;12.40;99.90
41720;DHT22;27405;53.316;-6.294;2023-08-06T04:07:30;12.50;99.90
41720;DHT22;27405;53.316;-6.294;2023-08-06T04:10:01;12.50;99.90
41720;DHT22;27405;53.316;-6.294;2023-08-06T04:12:27;12.50;99.90
41720;DHT22;27405;53.316;-6.294;2023-08-06T04:14:53;12.40;99.90
41720;DHT22;27405;53.316;-6.294;2023-08-06T04:17:20;12.40;99.90
41720;DHT22;27405;53.316;-6.294;2023-08-06T04:19:50;12.40;99.90
41720;DHT22;27405;53.316;-6.294;2023-08-06T04:22:16;12.40;99.90
41720;DHT22;27405;53.316;-6.294;2023-08-06T04:24:42;12.40;99.90
41720;DHT22;27405;53.316;-6.294;2023-08-06T04:27:09;12.30;99.90
41720;DHT22;27405;53.316;-6.294;2023-08-06T04:29:35;12.30;99.90
41720;DHT22;27405;53.316;-6.294;2023-08-06T04:32:01;12.30;99.90
41720;DHT22;27405;53.316;-6.294;2023-08-06T04:34:26;12.30;99.90
41720;DHT22;27405;53.316;-6.294;2023-08-06T04:36:52;12.30;99.90
41720;DHT22;27405;53.316;-6.294;2023-08-06T04:39:18;12.30;99.90
41720;DHT22;27405;53.316;-6.294;2023-08-06T04:41:43;12.20;99.90
41720;DHT22;27405;53.316;-6.294;2023-08-06T04:44:09;12.20;99.90
41720;DHT22;27405;53.316;-6.294;2023-08-06T04:46:35;12.20;99.90
41720;DHT22;27405;53.316;-6.294;2023-08-06T04:49:01;12.20;99.90
41720;DHT22;27405;53.316;-6.294;2023-08-06T04:51:26;12.20;99.90
41720;DHT22;27405;53.316;-6.294;2023-08-06T04:53:52;12.10;99.90
41720;DHT22;27405;53.316;-6.294;2023-08-06T04:56:17;12.10;99.90
41720;DHT22;27405;53.316;-6.294;2023-08-06T04:58:43;12.10;99.90
41720;DHT22;27405;53.316;-6.294;2023-08-06T05:01:09;12.10;99.90
41720;DHT22;27405;53.316;-6.294;2023-08-06T05:03:35;12.10;99.90
41720;DHT22;27405;53.316;-6.294;2023-08-06T05:06:00;12.10;99.90
41720;DHT22;27405;53.316;-6.294;2023-08-06T05:08:26;12.10;99.90
41720;DHT22;27405;53.316;-6.294;2023-08-06T05:10:51;12.00;99.90
41720;DHT22;27405;53.316;-6.294;2023-08-06T05:13:17;12.00;99.90
41720;DHT22;27405;53.316;-6.294;2023-08-06T05:15:43;12.00;99.90
41720;DHT22;27405;53.316;-6.294;2023-08-06T05:18:10;12.00;99.90
41720;DHT22;27405;53.316;-6.294;2023-08-06T05:20:40;12.00;99.90
41720;DHT22;27405;53.316;-6.294;2023-08-06T05:23:06;12.00;99.90
41720;DHT22;27405;53.316;-6.294;2023-08-06T05:25:34;12.10;99.90
41720;DHT22;27405;53.316;-6.294;2023-08-06T05:28:00;12.10;99.90
41720;DHT22;27405;53.316;-6.294;2023-08-06T05:30:27;12.10;99.90
41720;DHT22;27405;53.316;-6.294;2023-08-06T05:32:52;12.10;99.90
41720;DHT22;27405;53.316;-6.294;2023-08-06T05:35:18;12.10;99.90
41720;DHT22;27405;53.316;-6.294;2023-08-06T05:37:44;12.10;99.90
41720;DHT22;27405;53.316;-6.294;2023-08-06T05:40:10;12.10;99.90
41720;DHT22;27405;53.316;-6.294;2023-08-06T05:42:35;12.10;99.90
41720;DHT22;27405;53.316;-6.294;2023-08-06T05:45:01;12.20;99.90
41720;DHT22;27405;53.316;-6.294;2023-08-06T05:47:26;12.20;99.90
41720;DHT22;27405;53.316;-6.294;2023-08-06T05:49:52;12.20;99.90
41720;DHT22;27405;53.316;-6.294;2023-08-06T05:52:18;12.30;99.90
41720;DHT22;27405;53.316;-6.294;2023-08-06T05:54:43;12.40;99.90
41720;DHT22;27405;53.316;-6.294;2023-08-06T05:57:09;12.40;99.90
41720;DHT22;27405;53.316;-6.294;2023-08-06T05:59:35;12.50;99.90
41720;DHT22;27405;53.316;-6.294;2023-08-06T06:02:01;12.60;99.90
41720;DHT22;27405;53.316;-6.294;2023-08-06T06:04:28;12.60;99.90
41720;DHT22;27405;53.316;-6.294;2023-08-06T06:06:53;12.70;99.90
41720;DHT22;27405;53.316;-6.294;2023-08-06T06:09:19;12.80;99.90
41720;DHT22;27405;53.316;-6.294;2023-08-06T06:11:44;12.90;99.90
41720;DHT22;27405;53.316;-6.294;2023-08-06T06:14:10;13.10;99.90
41720;DHT22;27405;53.316;-6.294;2023-08-06T06:16:36;13.20;99.90
41720;DHT22;27405;53.316;-6.294;2023-08-06T06:19:01;13.30;99.90
41720;DHT22;27405;53.316;-6.294;2023-08-06T06:21:27;13.40;99.90
41720;DHT22;27405;53.316;-6.294;2023-08-06T06:23:53;13.50;99.90
41720;DHT22;27405;53.316;-6.294;2023-08-06T06:26:18;13.60;99.90
41720;DHT22;27405;53.316;-6.294;2023-08-06T06:28:44;13.70;99.90
41720;DHT22;27405;53.316;-6.294;2023-08-06T06:31:10;13.80;99.90
41720;DHT22;27405;53.316;-6.294;2023-08-06T06:33:36;13.90;99.90
41720;DHT22;27405;53.316;-6.294;2023-08-06T06:36:02;13.90;99.90
41720;DHT22;27405;53.316;-6.294;2023-08-06T06:38:30;14.00;99.90
41720;DHT22;27405;53.316;-6.294;2023-08-06T06:40:56;14.10;99.90
41720;DHT22;27405;53.316;-6.294;2023-08-06T06:43:23;14.10;99.90
41720;DHT22;27405;53.316;-6.294;2023-08-06T06:45:58;14.10;99.90
41720;DHT22;27405;53.316;-6.294;2023-08-06T06:48:26;14.20;99.90
41720;DHT22;27405;53.316;-6.294;2023-08-06T06:50:52;14.20;99.90
41720;DHT22;27405;53.316;-6.294;2023-08-06T06:53:17;14.30;99.90
41720;DHT22;27405;53.316;-6.294;2023-08-06T06:55:43;14.30;99.90
41720;DHT22;27405;53.316;-6.294;2023-08-06T06:58:09;14.20;99.90
41720;DHT22;27405;53.316;-6.294;2023-08-06T07:00:39;14.20;99.90
41720;DHT22;27405;53.316;-6.294;2023-08-06T07:03:04;14.10;99.90
41720;DHT22;27405;53.316;-6.294;2023-08-06T07:05:30;14.10;99.90
41720;DHT22;27405;53.316;-6.294;2023-08-06T07:07:56;14.10;99.90
41720;DHT22;27405;53.316;-6.294;2023-08-06T07:10:21;14.10;99.90
41720;DHT22;27405;53.316;-6.294;2023-08-06T07:12:47;14.00;99.90
41720;DHT22;27405;53.316;-6.294;2023-08-06T07:15:13;14.00;99.90
41720;DHT22;27405;53.316;-6.294;2023-08-06T07:17:38;14.00;99.90
41720;DHT22;27405;53.316;-6.294;2023-08-06T07:20:04;14.00;99.90
41720;DHT22;27405;53.316;-6.294;2023-08-06T07:22:31;14.00;99.90
41720;DHT22;27405;53.316;-6.294;2023-08-06T07:24:57;14.00;99.90
41720;DHT22;27405;53.316;-6.294;2023-08-06T07:27:23;14.00;99.90
41720;DHT22;27405;53.316;-6.294;2023-08-06T07:29:49;14.10;99.90
41720;DHT22;27405;53.316;-6.294;2023-08-06T07:32:15;14.10;99.90
41720;DHT22;27405;53.316;-6.294;2023-08-06T07:34:41;14.10;99.90
41720;DHT22;27405;53.316;-6.294;2023-08-06T07:37:07;14.10;99.90
41720;DHT22;27405;53.316;-6.294;2023-08-06T07:39:32;14.10;99.90
41720;DHT22;27405;53.316;-6.294;2023-08-06T07:41:58;14.20;99.90
41720;DHT22;27405;53.316;-6.294;2023-08-06T07:44:24;14.30;99.90
41720;DHT22;27405;53.316;-6.294;2023-08-06T07:46:50;14.40;99.90
41720;DHT22;27405;53.316;-6.294;2023-08-06T07:49:15;14.40;99.90
41720;DHT22;27405;53.316;-6.294;2023-08-06T07:51:41;14.50;99.90
41720;DHT22;27405;53.316;-6.294;2023-08-06T07:54:07;14.60;99.90
41720;DHT22;27405;53.316;-6.294;2023-08-06T07:56:33;14.70;99.90
41720;DHT22;27405;53.316;-6.294;2023-08-06T07:58:58;14.70;99.90
41720;DHT22;27405;53.316;-6.294;2023-08-06T08:01:24;14.70;99.90
41720;DHT22;27405;53.316;-6.294;2023-08-06T08:03:50;14.80;99.90
41720;DHT22;27405;53.316;-6.294;2023-08-06T08:06:16;14.80;99.90
41720;DHT22;27405;53.316;-6.294;2023-08-06T08:08:41;14.90;99.90
41720;DHT22;27405;53.316;-6.294;2023-08-06T08:11:07;15.00;99.90
41720;DHT22;27405;53.316;-6.294;2023-08-06T08:13:33;15.00;99.90
41720;DHT22;27405;53.316;-6.294;2023-08-06T08:16:00;15.20;99.90
41720;DHT22;27405;53.316;-6.294;2023-08-06T08:18:25;15.20;99.90
41720;DHT22;27405;53.316;-6.294;2023-08-06T08:20:51;15.20;99.90
41720;DHT22;27405;53.316;-6.294;2023-08-06T08:23:17;15.30;99.90
41720;DHT22;27405;53.316;-6.294;2023-08-06T08:25:42;15.40;99.90
41720;DHT22;27405;53.316;-6.294;2023-08-06T08:28:08;15.40;99.90
41720;DHT22;27405;53.316;-6.294;2023-08-06T08:30:34;15.50;99.90
41720;DHT22;27405;53.316;-6.294;2023-08-06T08:33:00;15.60;99.90
41720;DHT22;27405;53.316;-6.294;2023-08-06T08:35:25;15.70;99.90
41720;DHT22;27405;53.316;-6.294;2023-08-06T08:37:51;15.70;99.90
41720;DHT22;27405;53.316;-6.294;2023-08-06T08:40:17;15.70;99.90
41720;DHT22;27405;53.316;-6.294;2023-08-06T08:42:43;15.80;99.90
41720;DHT22;27405;53.316;-6.294;2023-08-06T08:45:13;15.90;99.90
41720;DHT22;27405;53.316;-6.294;2023-08-06T08:47:40;16.00;99.90
41720;DHT22;27405;53.316;-6.294;2023-08-06T08:50:08;16.10;99.90
41720;DHT22;27405;53.316;-6.294;2023-08-06T08:52:35;16.00;99.90
41720;DHT22;27405;53.316;-6.294;2023-08-06T08:55:02;16.10;99.90
41720;DHT22;27405;53.316;-6.294;2023-08-06T08:57:29;16.20;99.90
41720;DHT22;27405;53.316;-6.294;2023-08-06T08:59:55;16.30;99.90
41720;DHT22;27405;53.316;-6.294;2023-08-06T09:02:21;16.30;99.90
41720;DHT22;27405;53.316;-6.294;2023-08-06T09:04:49;16.30;99.90
41720;DHT22;27405;53.316;-6.294;2023-08-06T09:07:18;16.30;99.90
41720;DHT22;27405;53.316;-6.294;2023-08-06T09:09:48;16.30;99.90
41720;DHT22;27405;53.316;-6.294;2023-08-06T09:12:16;16.40;99.90
41720;DHT22;27405;53.316;-6.294;2023-08-06T09:14:42;16.50;99.90
41720;DHT22;27405;53.316;-6.294;2023-08-06T09:17:08;16.60;99.90
41720;DHT22;27405;53.316;-6.294;2023-08-06T09:19:36;16.70;99.90
41720;DHT22;27405;53.316;-6.294;2023-08-06T09:22:02;16.70;99.90
41720;DHT22;27405;53.316;-6.294;2023-08-06T09:24:28;16.80;99.90
41720;DHT22;27405;53.316;-6.294;2023-08-06T09:26:54;16.80;99.90
41720;DHT22;27405;53.316;-6.294;2023-08-06T09:29:20;16.80;99.90
41720;DHT22;27405;53.316;-6.294;2023-08-06T09:31:48;16.80;99.90
41720;DHT22;27405;53.316;-6.294;2023-08-06T09:34:21;16.80;99.90
41720;DHT22;27405;53.316;-6.294;2023-08-06T09:36:52;16.80;99.90
41720;DHT22;27405;53.316;-6.294;2023-08-06T09:39:25;16.80;99.90
41720;DHT22;27405;53.316;-6.294;2023-08-06T09:41:56;16.90;99.90
41720;DHT22;27405;53.316;-6.294;2023-08-06T09:44:22;16.90;99.90
41720;DHT22;27405;53.316;-6.294;2023-08-06T09:49:18;17.20;99.90
41720;DHT22;27405;53.316;-6.294;2023-08-06T09:51:45;17.40;99.90
41720;DHT22;27405;53.316;-6.294;2023-08-06T09:54:15;17.40;99.90
41720;DHT22;27405;53.316;-6.294;2023-08-06T09:56:42;17.50;99.90
41720;DHT22;27405;53.316;-6.294;2023-08-06T09:59:08;17.40;99.90
41720;DHT22;27405;53.316;-6.294;2023-08-06T10:01:35;17.20;99.90
41720;DHT22;27405;53.316;-6.294;2023-08-06T10:04:05;17.00;99.90
41720;DHT22;27405;53.316;-6.294;2023-08-06T10:06:36;16.90;99.90
41720;DHT22;27405;53.316;-6.294;2023-08-06T10:09:02;16.80;99.90
41720;DHT22;27405;53.316;-6.294;2023-08-06T10:11:28;16.80;99.90
41720;DHT22;27405;53.316;-6.294;2023-08-06T10:14:19;16.90;99.90
41720;DHT22;27405;53.316;-6.294;2023-08-06T10:16:46;17.00;99.90
41720;DHT22;27405;53.316;-6.294;2023-08-06T10:19:13;17.20;99.90
41720;DHT22;27405;53.316;-6.294;2023-08-06T10:21:41;17.30;99.90
41720;DHT22;27405;53.316;-6.294;2023-08-06T10:24:09;17.60;99.90
41720;DHT22;27405;53.316;-6.294;2023-08-06T10:26:40;17.80;99.90
41720;DHT22;27405;53.316;-6.294;2023-08-06T10:29:36;18.00;99.90
41720;DHT22;27405;53.316;-6.294;2023-08-06T10:32:03;18.00;99.90
41720;DHT22;27405;53.316;-6.294;2023-08-06T10:34:58;18.10;99.90
41720;DHT22;27405;53.316;-6.294;2023-08-06T10:37:36;18.30;99.90
41720;DHT22;27405;53.316;-6.294;2023-08-06T10:40:02;18.40;99.90
41720;DHT22;27405;53.316;-6.294;2023-08-06T10:42:29;18.40;99.90
41720;DHT22;27405;53.316;-6.294;2023-08-06T10:45:14;18.30;99.90
41720;DHT22;27405;53.316;-6.294;2023-08-06T10:47:41;18.20;99.90
41720;DHT22;27405;53.316;-6.294;2023-08-06T10:50:10;18.10;99.90
41720;DHT22;27405;53.316;-6.294;2023-08-06T10:52:36;18.00;99.90
41720;DHT22;27405;53.316;-6.294;2023-08-06T10:55:02;17.90;99.90
41720;DHT22;27405;53.316;-6.294;2023-08-06T10:57:28;17.70;99.90
41720;DHT22;27405;53.316;-6.294;2023-08-06T10:59:53;17.70;99.90
41720;DHT22;27405;53.316;-6.294;2023-08-06T11:02:19;17.70;99.90
41720;DHT22;27405;53.316;-6.294;2023-08-06T11:04:45;17.80;99.90
41720;DHT22;27405;53.316;-6.294;2023-08-06T11:07:11;18.00;99.90
41720;DHT22;27405;53.316;-6.294;2023-08-06T11:09:38;18.30;99.90
41720;DHT22;27405;53.316;-6.294;2023-08-06T11:12:09;18.60;99.90
41720;DHT22;27405;53.316;-6.294;2023-08-06T11:14:35;18.80;99.90
41720;DHT22;27405;53.316;-6.294;2023-08-06T11:17:01;18.80;99.90
41720;DHT22;27405;53.316;-6.294;2023-08-06T11:19:27;18.70;99.90
41720;DHT22;27405;53.316;-6.294;2023-08-06T11:21:55;18.50;99.90
41720;DHT22;27405;53.316;-6.294;2023-08-06T11:24:23;18.10;99.90
41720;DHT22;27405;53.316;-6.294;2023-08-06T11:26:49;17.70;99.90
41720;DHT22;27405;53.316;-6.294;2023-08-06T11:29:15;17.30;99.90
41720;DHT22;27405;53.316;-6.294;2023-08-06T11:31:41;17.00;99.90
41720;DHT22;27405;53.316;-6.294;2023-08-06T11:34:07;16.90;99.90
41720;DHT22;27405;53.316;-6.294;2023-08-06T11:36:34;16.80;99.90
41720;DHT22;27405;53.316;-6.294;2023-08-06T11:39:03;16.80;99.90
41720;DHT22;27405;53.316;-6.294;2023-08-06T11:41:31;16.80;99.90
41720;DHT22;27405;53.316;-6.294;2023-08-06T11:43:58;16.70;99.90
41720;DHT22;27405;53.316;-6.294;2023-08-06T11:46:24;16.70;99.90
41720;DHT22;27405;53.316;-6.294;2023-08-06T11:48:58;16.60;99.90
41720;DHT22;27405;53.316;-6.294;2023-08-06T11:51:25;16.60;99.90
41720;DHT22;27405;53.316;-6.294;2023-08-06T11:53:57;16.60;99.90
41720;DHT22;27405;53.316;-6.294;2023-08-06T11:56:24;16.80;99.90
41720;DHT22;27405;53.316;-6.294;2023-08-06T11:58:51;17.00;99.90
41720;DHT22;27405;53.316;-6.294;2023-08-06T12:01:18;17.30;99.90
41720;DHT22;27405;53.316;-6.294;2023-08-06T12:03:43;17.50;99.90
41720;DHT22;27405;53.316;-6.294;2023-08-06T12:06:09;17.60;99.90
41720;DHT22;27405;53.316;-6.294;2023-08-06T12:08:35;17.80;99.90
41720;DHT22;27405;53.316;-6.294;2023-08-06T12:11:00;17.90;99.90
41720;DHT22;27405;53.316;-6.294;2023-08-06T12:13:26;17.90;99.90
41720;DHT22;27405;53.316;-6.294;2023-08-06T12:15:53;18.10;99.90
41720;DHT22;27405;53.316;-6.294;2023-08-06T12:18:19;18.30;99.90
41720;DHT22;27405;53.316;-6.294;2023-08-06T12:20:45;18.40;99.90
41720;DHT22;27405;53.316;-6.294;2023-08-06T12:23:11;18.50;99.90
41720;DHT22;27405;53.316;-6.294;2023-08-06T12:25:41;18.40;99.90
41720;DHT22;27405;53.316;-6.294;2023-08-06T12:28:06;18.50;99.90
41720;DHT22;27405;53.316;-6.294;2023-08-06T12:30:34;18.60;99.90
41720;DHT22;27405;53.316;-6.294;2023-08-06T12:32:59;18.80;99.90
41720;DHT22;27405;53.316;-6.294;2023-08-06T12:35:25;18.90;99.90
41720;DHT22;27405;53.316;-6.294;2023-08-06T12:37:51;19.10;99.90
41720;DHT22;27405;53.316;-6.294;2023-08-06T12:40:20;19.20;99.90
41720;DHT22;27405;53.316;-6.294;2023-08-06T12:42:46;19.10;99.90
41720;DHT22;27405;53.316;-6.294;2023-08-06T12:45:12;18.80;99.90
41720;DHT22;27405;53.316;-6.294;2023-08-06T12:47:37;18.50;99.90
41720;DHT22;27405;53.316;-6.294;2023-08-06T12:50:03;18.20;99.90
41720;DHT22;27405;53.316;-6.294;2023-08-06T12:52:29;18.10;99.90
41720;DHT22;27405;53.316;-6.294;2023-08-06T12:54:55;18.10;99.90
41720;DHT22;27405;53.316;-6.294;2023-08-06T12:57:21;18.10;99.90
41720;DHT22;27405;53.316;-6.294;2023-08-06T12:59:46;18.20;99.90
41720;DHT22;27405;53.316;-6.294;2023-08-06T13:02:13;18.40;99.90
41720;DHT22;27405;53.316;-6.294;2023-08-06T13:04:39;18.50;99.90
41720;DHT22;27405;53.316;-6.294;2023-08-06T13:07:05;18.70;99.90
41720;DHT22;27405;53.316;-6.294;2023-08-06T13:09:32;18.90;99.90
41720;DHT22;27405;53.316;-6.294;2023-08-06T13:11:58;19.00;99.90
41720;DHT22;27405;53.316;-6.294;2023-08-06T13:14:25;19.00;99.90
41720;DHT22;27405;53.316;-6.294;2023-08-06T13:16:51;19.00;99.90
41720;DHT22;27405;53.316;-6.294;2023-08-06T13:19:17;19.10;99.90
41720;DHT22;27405;53.316;-6.294;2023-08-06T13:24:17;19.00;99.90
41720;DHT22;27405;53.316;-6.294;2023-08-06T13:26:43;19.00;99.90
41720;DHT22;27405;53.316;-6.294;2023-08-06T13:29:09;19.00;99.90
41720;DHT22;27405;53.316;-6.294;2023-08-06T13:31:36;19.00;99.90
41720;DHT22;27405;53.316;-6.294;2023-08-06T13:34:02;19.00;99.90
41720;DHT22;27405;53.316;-6.294;2023-08-06T13:36:28;19.30;99.90
41720;DHT22;27405;53.316;-6.294;2023-08-06T13:38:54;19.50;99.90
41720;DHT22;27405;53.316;-6.294;2023-08-06T13:41:20;19.70;99.90
41720;DHT22;27405;53.316;-6.294;2023-08-06T13:43:46;19.90;99.90
41720;DHT22;27405;53.316;-6.294;2023-08-06T13:46:12;20.10;99.90
41720;DHT22;27405;53.316;-6.294;2023-08-06T13:48:42;20.20;99.90
41720;DHT22;27405;53.316;-6.294;2023-08-06T13:51:08;20.20;99.90
41720;DHT22;27405;53.316;-6.294;2023-08-06T13:53:34;20.20;99.90
41720;DHT22;27405;53.316;-6.294;2023-08-06T13:55:59;20.20;99.90
41720;DHT22;27405;53.316;-6.294;2023-08-06T13:58:25;20.30;99.90
41720;DHT22;27405;53.316;-6.294;2023-08-06T14:00:52;20.30;99.90
41720;DHT22;27405;53.316;-6.294;2023-08-06T14:03:19;20.30;99.90
41720;DHT22;27405;53.316;-6.294;2023-08-06T14:05:45;20.10;99.90
41720;DHT22;27405;53.316;-6.294;2023-08-06T14:08:11;20.10;99.90
41720;DHT22;27405;53.316;-6.294;2023-08-06T14:10:37;20.00;99.90
41720;DHT22;27405;53.316;-6.294;2023-08-06T14:13:02;20.00;99.90
41720;DHT22;27405;53.316;-6.294;2023-08-06T14:15:28;20.10;99.90
41720;DHT22;27405;53.316;-6.294;2023-08-06T14:17:54;20.10;99.90
41720;DHT22;27405;53.316;-6.294;2023-08-06T14:20:19;20.20;99.90
41720;DHT22;27405;53.316;-6.294;2023-08-06T14:22:45;20.10;99.90
41720;DHT22;27405;53.316;-6.294;2023-08-06T14:25:11;20.10;99.90
41720;DHT22;27405;53.316;-6.294;2023-08-06T14:27:36;20.20;99.40
41720;DHT22;27405;53.316;-6.294;2023-08-06T14:30:05;20.20;99.20
41720;DHT22;27405;53.316;-6.294;2023-08-06T14:32:32;20.30;99.10
41720;DHT22;27405;53.316;-6.294;2023-08-06T14:34:57;20.40;98.90
41720;DHT22;27405;53.316;-6.294;2023-08-06T14:37:24;20.30;98.70
41720;DHT22;27405;53.316;-6.294;2023-08-06T14:39:50;20.40;98.60
41720;DHT22;27405;53.316;-6.294;2023-08-06T14:42:15;20.50;98.40
41720;DHT22;27405;53.316;-6.294;2023-08-06T14:44:41;20.80;99.00
41720;DHT22;27405;53.316;-6.294;2023-08-06T14:47:07;21.40;98.70
41720;DHT22;27405;53.316;-6.294;2023-08-06T14:49:32;21.90;98.10
41720;DHT22;27405;53.316;-6.294;2023-08-06T14:51:58;22.20;97.50
41720;DHT22;27405;53.316;-6.294;2023-08-06T14:54:25;22.30;97.00
41720;DHT22;27405;53.316;-6.294;2023-08-06T14:56:52;22.20;96.70
41720;DHT22;27405;53.316;-6.294;2023-08-06T14:59:18;22.00;96.30
41720;DHT22;27405;53.316;-6.294;2023-08-06T15:01:44;21.90;96.20
41720;DHT22;27405;53.316;-6.294;2023-08-06T15:04:09;21.70;96.20
41720;DHT22;27405;53.316;-6.294;2023-08-06T15:06:35;21.50;96.10
41720;DHT22;27405;53.316;-6.294;2023-08-06T15:09:01;21.40;96.50
41720;DHT22;27405;53.316;-6.294;2023-08-06T15:11:27;21.30;96.60
41720;DHT22;27405;53.316;-6.294;2023-08-06T15:13:53;21.20;96.70
41720;DHT22;27405;53.316;-6.294;2023-08-06T15:16:18;21.20;96.70
41720;DHT22;27405;53.316;-6.294;2023-08-06T15:18:44;21.10;97.20
41720;DHT22;27405;53.316;-6.294;2023-08-06T15:21:10;21.00;97.10
41720;DHT22;27405;53.316;-6.294;2023-08-06T15:23:35;20.90;97.10